createdAt,value
2022-12-19T00:00:02.133Z,7.1
2022-12-19T00:15:01.852Z,7.1
2022-12-19T00:30:01.667Z,7.04
2022-12-19T00:45:02.263Z,7.01
2022-12-19T01:00:01.868Z,7.04
2022-12-19T01:15:04.943Z,7.04
2022-12-19T01:30:01.861Z,7.09
2022-12-19T01:45:01.468Z,7.48
2022-12-19T02:00:02.063Z,7.59
2022-12-19T02:15:03.233Z,7.64
2022-12-19T02:30:02.308Z,7.46
2022-12-19T02:45:01.980Z,7.34
2022-12-19T03:00:02.775Z,7.78
2022-12-19T03:15:01.838Z,7.72
2022-12-19T03:30:01.530Z,7.91
2022-12-19T03:45:02.240Z,7.94
2022-12-19T04:00:01.962Z,8.18
2022-12-19T04:15:01.636Z,8.1
2022-12-19T04:30:02.281Z,8.18
2022-12-19T04:45:02.055Z,8.33
2022-12-19T05:00:01.702Z,8.37
2022-12-19T05:15:01.647Z,8.64
2022-12-19T05:30:01.446Z,8.75
2022-12-19T05:45:02.064Z,8.93
2022-12-19T06:00:01.721Z,9.11
2022-12-19T06:15:01.444Z,9.31
2022-12-19T06:30:02.098Z,9.13
2022-12-19T06:45:01.783Z,9.05
2022-12-19T07:00:01.589Z,9.56
2022-12-19T07:15:01.497Z,9.29
2022-12-19T07:30:02.265Z,9.22
2022-12-19T07:45:01.915Z,9.34
2022-12-19T08:00:01.524Z,9.53
2022-12-19T08:15:02.207Z,9.73
2022-12-19T08:30:01.844Z,10
2022-12-19T08:45:01.504Z,10.2
2022-12-19T09:00:02.134Z,10.42
2022-12-19T09:15:01.837Z,10.57
2022-12-19T09:30:01.528Z,10.7
2022-12-19T09:45:02.178Z,11.16
2022-12-19T10:00:01.809Z,11.51
2022-12-19T10:15:01.475Z,11.76
2022-12-19T10:30:02.191Z,12.1
2022-12-19T10:45:01.870Z,12.35
2022-12-19T11:00:01.541Z,12.63
2022-12-19T11:21:09.147Z,12.66
2022-12-19T11:45:01.890Z,13
2022-12-19T12:00:05.438Z,13.49
2022-12-19T12:26:04.693Z,13.37
2022-12-19T12:31:44.723Z,13.36
2022-12-19T12:45:01.922Z,13.48
2022-12-19T13:00:01.524Z,13.32
2022-12-19T13:15:02.177Z,13.38
2022-12-19T13:30:01.836Z,13.15
2022-12-19T13:45:01.493Z,13.31
2022-12-19T14:00:02.171Z,13.33
2022-12-19T14:15:13.262Z,13.43
2022-12-19T14:30:26.063Z,13.63
2022-12-19T14:52:02.691Z,13.8
2022-12-19T15:00:01.576Z,13.97
2022-12-19T15:15:01.732Z,13.93
2022-12-19T15:30:01.634Z,14.04
2022-12-19T15:45:02.271Z,13.95
2022-12-19T16:00:01.919Z,14.08
2022-12-19T16:15:01.569Z,13.94
2022-12-19T16:30:02.216Z,13.6
2022-12-19T16:45:01.868Z,13.47
2022-12-19T17:00:01.517Z,13.65
2022-12-19T17:15:02.256Z,13.39
2022-12-19T17:30:01.908Z,13.13
2022-12-19T17:45:01.565Z,13.34
2022-12-19T18:00:02.188Z,13.67
2022-12-19T18:15:01.812Z,13.95
2022-12-19T18:30:01.539Z,14.04
2022-12-19T18:45:02.174Z,14.11
2022-12-19T19:00:01.801Z,14.27
2022-12-19T19:15:01.462Z,14.39
2022-12-19T19:30:02.145Z,14.26
2022-12-19T19:45:01.806Z,14.16
2022-12-19T20:00:01.439Z,14.1
2022-12-19T20:15:02.127Z,13.95
2022-12-19T20:30:01.823Z,14.18
2022-12-19T20:45:01.477Z,14.6
2022-12-19T21:00:02.126Z,14.35
2022-12-19T21:15:01.812Z,14.4
2022-12-19T21:30:01.488Z,14.36
2022-12-19T21:45:02.162Z,14.52
2022-12-19T22:00:01.805Z,14.84
2022-12-19T22:15:01.509Z,14.85
2022-12-19T22:30:08.483Z,15
2022-12-19T22:45:01.396Z,15
2022-12-19T23:00:02.074Z,14.94
2022-12-19T23:15:01.930Z,14.9
2022-12-19T23:30:01.719Z,14.98
2022-12-19T23:45:02.380Z,15.08
